createdAt,value
2022-08-25T00:01:32.408Z,6.22
2022-08-25T00:04:01.042Z,9.77
2022-08-25T00:06:31.468Z,5.78
2022-08-25T00:09:00.991Z,8.18
2022-08-25T00:11:32.426Z,7.25
2022-08-25T00:14:02.783Z,4.68
2022-08-25T00:16:32.592Z,5.75
2022-08-25T00:19:05.957Z,5.18
2022-08-25T00:21:34.296Z,8.00
2022-08-25T00:24:04.339Z,7.10
2022-08-25T00:26:32.409Z,7.72
2022-08-25T00:29:01.204Z,5.32
2022-08-25T00:31:38.404Z,8.32
2022-08-25T00:34:09.822Z,8.30
2022-08-25T00:36:38.412Z,6.40
2022-08-25T00:39:10.186Z,9.55
2022-08-25T00:41:39.483Z,7.20
2022-08-25T00:44:11.020Z,6.22
2022-08-25T00:46:41.464Z,6.07
2022-08-25T00:49:22.471Z,6.63
2022-08-25T00:51:56.755Z,6.35
2022-08-25T00:54:29.007Z,8.80
2022-08-25T00:56:58.619Z,7.97
2022-08-25T00:59:27.446Z,5.25
2022-08-25T01:01:56.586Z,7.45
2022-08-25T01:04:25.454Z,7.78
2022-08-25T01:06:53.976Z,5.93
2022-08-25T01:09:22.465Z,7.72
2022-08-25T01:11:51.850Z,9.38
2022-08-25T01:14:22.704Z,6.50
2022-08-25T01:16:51.119Z,8.57
2022-08-25T01:19:22.544Z,6.47
2022-08-25T01:21:54.189Z,6.50
2022-08-25T01:24:27.130Z,7.53
2022-08-25T01:26:55.191Z,7.32
2022-08-25T01:29:25.383Z,6.38
2022-08-25T01:31:57.775Z,6.95
2022-08-25T01:34:27.063Z,9.88
2022-08-25T01:36:57.490Z,6.72
2022-08-25T01:39:26.617Z,8.63
2022-08-25T01:42:24.658Z,7.18
2022-08-25T01:44:52.735Z,11.30
2022-08-25T01:47:20.899Z,7.93
2022-08-25T01:49:49.570Z,7.60
2022-08-25T01:52:24.649Z,6.43
2022-08-25T01:54:52.769Z,6.07
2022-08-25T01:57:22.053Z,10.32
2022-08-25T01:59:50.120Z,7.95
2022-08-25T02:02:18.379Z,7.50
2022-08-25T02:04:47.758Z,11.07
2022-08-25T02:07:16.302Z,6.75
2022-08-25T02:09:45.694Z,8.02
2022-08-25T02:12:13.971Z,8.13
2022-08-25T02:14:42.021Z,7.60
2022-08-25T02:17:11.255Z,7.50
2022-08-25T02:19:39.284Z,8.85
2022-08-25T02:22:07.982Z,8.05
2022-08-25T02:24:36.031Z,8.68
2022-08-25T02:27:05.930Z,8.85
2022-08-25T02:29:34.087Z,8.63
2022-08-25T02:32:02.108Z,9.38
2022-08-25T02:34:30.347Z,8.60
2022-08-25T02:36:58.395Z,8.20
2022-08-25T02:39:26.396Z,10.75
2022-08-25T02:41:54.473Z,9.95
2022-08-25T02:44:23.844Z,10.90
2022-08-25T02:46:51.873Z,7.85
2022-08-25T02:49:19.935Z,9.10
2022-08-25T02:51:47.947Z,7.95
2022-08-25T02:54:16.160Z,10.07
2022-08-25T02:56:44.322Z,7.78
2022-08-25T02:59:12.766Z,7.22
2022-08-25T03:01:42.245Z,7.68
2022-08-25T03:04:10.348Z,7.88
2022-08-25T03:06:38.375Z,11.88
2022-08-25T03:09:06.488Z,8.65
2022-08-25T03:11:36.039Z,7.60
2022-08-25T03:14:04.201Z,8.18
2022-08-25T03:16:32.405Z,7.30
2022-08-25T03:19:02.442Z,7.93
2022-08-25T03:21:31.050Z,7.75
2022-08-25T03:23:59.878Z,10.27
2022-08-25T03:26:45.644Z,9.45
2022-08-25T03:29:13.958Z,8.43
2022-08-25T03:31:44.773Z,8.07
2022-08-25T03:34:14.438Z,9.77
2022-08-25T03:36:42.443Z,8.23
2022-08-25T03:39:10.818Z,9.98
2022-08-25T03:41:38.935Z,8.75
2022-08-25T03:44:10.171Z,10.30
2022-08-25T03:46:41.160Z,8.73
2022-08-25T03:49:14.472Z,10.68
2022-08-25T03:51:46.998Z,8.73
2022-08-25T03:54:16.503Z,9.20
2022-08-25T03:56:44.733Z,7.80
2022-08-25T03:59:13.019Z,9.32
2022-08-25T04:01:43.526Z,10.43
2022-08-25T04:04:12.792Z,11.63
2022-08-25T04:06:41.643Z,9.40
2022-08-25T04:09:12.420Z,8.38
2022-08-25T04:11:40.696Z,8.57
2022-08-25T04:14:15.814Z,10.50
2022-08-25T04:16:45.372Z,10.20
2022-08-25T04:19:13.459Z,8.80
2022-08-25T04:21:41.978Z,9.52
2022-08-25T04:24:12.835Z,11.25
2022-08-25T04:26:43.307Z,10.50
2022-08-25T04:29:13.038Z,12.25
2022-08-25T04:31:42.740Z,10.60
2022-08-25T04:34:29.305Z,10.75
2022-08-25T04:36:59.912Z,10.65
2022-08-25T04:39:29.578Z,9.57
2022-08-25T04:41:57.830Z,9.07
2022-08-25T04:44:26.047Z,10.98
2022-08-25T04:46:54.100Z,9.57
2022-08-25T04:49:22.124Z,11.23
2022-08-25T04:51:50.339Z,11.50
2022-08-25T04:54:21.674Z,9.30
2022-08-25T04:56:54.028Z,11.65
2022-08-25T04:59:22.719Z,9.35
2022-08-25T05:01:52.246Z,8.82
2022-08-25T05:04:27.764Z,8.57
2022-08-25T05:06:56.065Z,8.45
2022-08-25T05:09:24.102Z,9.55
2022-08-25T05:11:54.974Z,12.23
2022-08-25T05:14:26.227Z,8.90
2022-08-25T05:16:55.111Z,9.00
2022-08-25T05:19:23.959Z,8.48
2022-08-25T05:21:52.549Z,8.48
2022-08-25T05:24:22.106Z,9.82
2022-08-25T05:26:50.376Z,9.00
2022-08-25T05:29:19.728Z,11.32
2022-08-25T05:31:50.563Z,9.30
2022-08-25T05:34:19.971Z,9.75
2022-08-25T05:36:48.398Z,9.57
2022-08-25T05:39:16.469Z,10.00
2022-08-25T05:41:44.543Z,12.63
2022-08-25T05:44:12.818Z,10.07
2022-08-25T05:46:42.193Z,9.98
2022-08-25T05:49:10.209Z,10.25
2022-08-25T05:51:38.359Z,10.77
2022-08-25T05:54:06.783Z,9.60
2022-08-25T05:56:34.779Z,10.88
2022-08-25T05:59:07.361Z,12.43
2022-08-25T06:01:54.481Z,9.88
2022-08-25T06:04:24.351Z,11.73
2022-08-25T06:06:53.916Z,10.60
2022-08-25T06:09:22.318Z,13.68
2022-08-25T06:11:54.483Z,11.55
2022-08-25T06:14:23.899Z,14.70
2022-08-25T06:16:52.545Z,11.45
2022-08-25T06:19:21.242Z,10.05
2022-08-25T06:21:53.818Z,9.93
2022-08-25T06:24:21.838Z,12.10
2022-08-25T06:26:49.900Z,8.70
2022-08-25T06:29:17.930Z,9.15
2022-08-25T06:31:46.556Z,10.68
2022-08-25T06:34:14.938Z,10.90
2022-08-25T06:36:43.343Z,9.30
2022-08-25T06:39:18.408Z,8.70
2022-08-25T06:41:46.482Z,10.60
2022-08-25T06:44:14.512Z,9.15
2022-08-25T06:46:42.560Z,7.70
2022-08-25T06:49:11.520Z,7.63
2022-08-25T06:51:39.776Z,7.68
2022-08-25T06:54:10.079Z,7.60
2022-08-25T06:56:41.367Z,9.35
2022-08-25T06:59:10.495Z,11.98
2022-08-25T07:01:38.748Z,8.13
2022-08-25T07:04:12.881Z,9.70
2022-08-25T07:06:41.806Z,9.48
2022-08-25T07:09:11.383Z,12.50
2022-08-25T07:11:41.479Z,9.30
2022-08-25T07:14:12.094Z,8.27
2022-08-25T07:16:42.414Z,7.70
2022-08-25T07:19:14.830Z,8.55
2022-08-25T07:21:45.705Z,9.07
2022-08-25T07:24:15.363Z,7.88
2022-08-25T07:26:46.638Z,10.88
2022-08-25T07:29:16.870Z,8.13
2022-08-25T07:31:45.962Z,9.95
2022-08-25T07:34:31.699Z,11.18
2022-08-25T07:37:00.132Z,9.55
2022-08-25T07:39:29.186Z,9.27
2022-08-25T07:41:58.815Z,9.95
2022-08-25T07:44:28.759Z,9.23
2022-08-25T07:46:57.187Z,10.38
2022-08-25T07:49:35.897Z,10.60
2022-08-25T07:52:08.990Z,9.60
2022-08-25T07:54:38.423Z,10.85
2022-08-25T07:57:09.948Z,9.93
2022-08-25T07:59:41.797Z,11.20
2022-08-25T08:02:18.543Z,11.18
2022-08-25T08:04:49.357Z,10.32
2022-08-25T08:07:19.515Z,12.50
2022-08-25T08:09:55.910Z,10.60
2022-08-25T08:12:29.791Z,10.98
2022-08-25T08:15:00.246Z,10.50
2022-08-25T08:17:28.528Z,10.82
2022-08-25T08:19:56.619Z,12.75
2022-08-25T08:22:24.945Z,10.35
2022-08-25T08:24:54.456Z,10.77
2022-08-25T08:27:24.470Z,10.68
2022-08-25T08:29:54.636Z,10.13
2022-08-25T08:32:31.417Z,12.25
2022-08-25T08:35:09.521Z,10.90
2022-08-25T08:37:42.042Z,10.95
2022-08-25T08:40:11.745Z,13.38
2022-08-25T08:42:54.760Z,13.48
2022-08-25T08:45:40.571Z,9.82
2022-08-25T08:48:41.079Z,13.00
2022-08-25T08:51:19.421Z,14.07
2022-08-25T08:53:52.294Z,9.98
2022-08-25T08:56:24.340Z,10.82
2022-08-25T08:59:05.651Z,12.30
2022-08-25T09:01:43.727Z,13.10
2022-08-25T09:04:20.062Z,12.13
2022-08-25T09:06:49.408Z,10.43
2022-08-25T09:09:25.995Z,11.30
2022-08-25T09:12:05.375Z,12.32
2022-08-25T09:14:47.046Z,12.65
2022-08-25T09:17:37.234Z,13.35
2022-08-25T09:20:19.454Z,12.07
2022-08-25T09:22:55.590Z,10.77
2022-08-25T09:28:22.437Z,11.40
2022-08-25T09:30:57.739Z,9.50
2022-08-25T09:33:29.270Z,9.52
2022-08-25T09:35:58.018Z,8.90
2022-08-25T09:38:27.069Z,13.20
2022-08-25T09:40:57.104Z,8.80
2022-08-25T09:43:32.198Z,10.00
2022-08-25T09:46:02.552Z,9.55
2022-08-25T09:48:40.611Z,10.85
2022-08-25T09:51:19.071Z,9.38
2022-08-25T09:53:54.725Z,8.90
2022-08-25T09:56:24.842Z,9.20
2022-08-25T09:58:54.981Z,11.70
2022-08-25T10:01:24.675Z,8.43
2022-08-25T10:04:18.868Z,11.57
2022-08-25T10:06:48.723Z,8.88
2022-08-25T10:09:29.401Z,9.27
2022-08-25T10:12:01.140Z,11.93
2022-08-25T10:14:35.921Z,8.50
2022-08-25T10:17:24.654Z,11.27
2022-08-25T10:20:17.194Z,9.38
2022-08-25T10:22:48.289Z,13.45
2022-08-25T10:25:23.481Z,9.25
2022-08-25T10:28:04.546Z,9.90
2022-08-25T10:30:43.851Z,9.98
2022-08-25T10:33:20.674Z,11.02
2022-08-25T10:35:58.712Z,10.35
2022-08-25T10:38:37.621Z,10.68
2022-08-25T10:41:30.383Z,10.32
2022-08-25T10:44:31.811Z,9.93
2022-08-25T10:47:29.071Z,10.30
2022-08-25T10:50:04.030Z,10.65
2022-08-25T10:52:40.061Z,17.08
2022-08-25T10:55:17.875Z,10.35
2022-08-25T10:57:56.856Z,9.10
2022-08-25T11:00:31.820Z,8.95
2022-08-25T11:03:22.019Z,10.00
2022-08-25T11:05:58.291Z,7.80
2022-08-25T11:08:37.213Z,10.23
2022-08-25T11:11:13.622Z,8.35
2022-08-25T11:13:48.667Z,8.85
2022-08-25T11:16:20.919Z,10.02
2022-08-25T11:18:55.279Z,11.32
2022-08-25T11:21:32.543Z,8.63
2022-08-25T11:24:09.328Z,8.32
2022-08-25T11:26:41.306Z,8.60
2022-08-25T11:29:15.933Z,9.02
2022-08-25T11:31:53.963Z,9.30
2022-08-25T11:34:23.239Z,8.10
2022-08-25T11:36:55.695Z,10.00
2022-08-25T11:39:38.677Z,8.75
2022-08-25T11:42:21.931Z,10.63
2022-08-25T11:44:59.759Z,11.32
2022-08-25T11:47:47.571Z,9.13
2022-08-25T11:50:30.253Z,8.30
2022-08-25T11:53:02.214Z,9.25
2022-08-25T11:55:48.536Z,8.88
2022-08-25T11:58:55.379Z,10.20
2022-08-25T12:01:57.051Z,8.85
2022-08-25T12:04:42.178Z,8.68
2022-08-25T12:07:22.582Z,9.20
2022-08-25T12:10:14.033Z,10.25
2022-08-25T12:15:57.971Z,7.85
2022-08-25T12:18:46.640Z,10.13
2022-08-25T12:21:34.384Z,7.18
2022-08-25T12:24:11.937Z,8.60
2022-08-25T12:26:47.063Z,7.93
2022-08-25T12:29:21.654Z,12.05
2022-08-25T12:32:18.280Z,6.97
2022-08-25T12:35:04.885Z,9.05
2022-08-25T12:37:35.529Z,6.50
2022-08-25T12:40:08.079Z,6.72
2022-08-25T12:42:39.992Z,6.20
2022-08-25T12:45:32.348Z,6.65
2022-08-25T12:48:34.431Z,5.85
2022-08-25T12:51:06.379Z,6.93
2022-08-25T12:53:38.830Z,8.20
2022-08-25T12:56:10.767Z,7.10
2022-08-25T12:59:00.317Z,6.90
2022-08-25T13:01:51.793Z,9.50
2022-08-25T13:04:53.664Z,7.22
2022-08-25T13:07:37.805Z,8.48
2022-08-25T13:10:28.439Z,8.00
2022-08-25T13:13:05.011Z,8.02
2022-08-25T13:15:40.217Z,8.35
2022-08-25T13:18:24.867Z,6.97
2022-08-25T13:20:55.966Z,8.68
2022-08-25T13:23:29.110Z,9.75
2022-08-25T13:25:58.547Z,6.78
2022-08-25T13:28:30.191Z,7.60
2022-08-25T13:31:05.745Z,7.93
2022-08-25T13:33:34.968Z,7.07
2022-08-25T13:36:22.240Z,6.85
2022-08-25T13:38:51.998Z,7.65
2022-08-25T13:41:28.651Z,6.80
2022-08-25T13:44:00.780Z,7.85
2022-08-25T13:46:29.360Z,9.43
2022-08-25T13:49:05.123Z,7.55
2022-08-25T13:51:33.151Z,6.90
2022-08-25T13:54:05.840Z,7.03
2022-08-25T13:56:40.532Z,8.63
2022-08-25T13:59:23.929Z,10.57
2022-08-25T14:01:54.113Z,8.40
2022-08-25T14:04:29.536Z,7.10
2022-08-25T14:07:34.127Z,6.68
2022-08-25T14:10:07.096Z,9.73
2022-08-25T14:12:39.917Z,9.38
2022-08-25T14:15:12.766Z,6.88
2022-08-25T14:17:43.569Z,7.57
2022-08-25T14:20:27.149Z,8.63
2022-08-25T14:22:58.630Z,13.18
2022-08-25T14:25:30.381Z,7.43
2022-08-25T14:28:08.285Z,8.23
2022-08-25T14:30:43.452Z,6.97
2022-08-25T14:33:15.458Z,8.05
2022-08-25T14:35:46.139Z,9.45
2022-08-25T14:38:17.100Z,7.20
2022-08-25T14:40:47.060Z,8.73
2022-08-25T14:43:16.006Z,8.93
2022-08-25T14:45:48.175Z,7.65
2022-08-25T14:48:24.290Z,9.05
2022-08-25T14:50:52.623Z,8.40
2022-08-25T14:53:20.883Z,11.00
2022-08-25T14:55:53.790Z,10.45
2022-08-25T14:58:27.549Z,8.77
2022-08-25T15:00:57.524Z,11.07
2022-08-25T15:03:31.733Z,8.63
2022-08-25T15:06:00.927Z,9.18
2022-08-25T15:08:46.721Z,8.35
2022-08-25T15:11:16.571Z,7.93
2022-08-25T15:13:49.407Z,9.40
2022-08-25T15:16:35.056Z,9.90
2022-08-25T15:19:06.501Z,7.13
2022-08-25T15:21:35.780Z,8.30
2022-08-25T15:24:04.516Z,7.47
2022-08-25T15:26:36.646Z,7.10
2022-08-25T15:29:04.999Z,7.80
2022-08-25T15:31:33.231Z,6.90
2022-08-25T15:34:01.491Z,7.00
2022-08-25T15:36:29.639Z,8.82
2022-08-25T15:38:58.124Z,8.73
2022-08-25T15:41:27.831Z,7.80
2022-08-25T15:43:57.980Z,9.80
2022-08-25T15:46:28.750Z,7.85
2022-08-25T15:48:59.592Z,7.20
2022-08-25T15:51:28.010Z,7.85
2022-08-25T15:53:56.150Z,8.63
2022-08-25T15:56:26.445Z,9.93
2022-08-25T15:58:55.405Z,9.05
2022-08-25T16:01:27.345Z,7.45
2022-08-25T16:03:58.687Z,7.25
2022-08-25T16:06:27.643Z,7.57
2022-08-25T16:08:55.725Z,7.68
2022-08-25T16:11:25.829Z,7.30
2022-08-25T16:13:55.118Z,8.25
2022-08-25T16:16:27.325Z,9.43
2022-08-25T16:18:56.152Z,7.93
2022-08-25T16:21:29.966Z,7.60
2022-08-25T16:24:04.413Z,7.82
2022-08-25T16:26:36.478Z,8.45
2022-08-25T16:29:06.584Z,7.35
2022-08-25T16:31:36.252Z,8.65
2022-08-25T16:34:04.752Z,7.10
2022-08-25T16:36:32.798Z,8.27
2022-08-25T16:39:01.732Z,7.97
2022-08-25T16:41:34.202Z,8.80
2022-08-25T16:44:05.280Z,8.68
2022-08-25T16:46:35.385Z,11.57
2022-08-25T16:49:05.800Z,7.88
2022-08-25T16:51:33.856Z,7.90
2022-08-25T16:54:22.104Z,7.68
2022-08-25T16:56:53.706Z,8.65
2022-08-25T16:59:23.821Z,8.60
2022-08-25T17:01:54.138Z,8.32
2022-08-25T17:04:32.032Z,8.35
2022-08-25T17:07:01.985Z,9.70
2022-08-25T17:09:30.713Z,7.50
2022-08-25T17:11:58.935Z,7.53
2022-08-25T17:14:26.954Z,8.32
2022-08-25T17:16:56.387Z,7.85
2022-08-25T17:19:25.911Z,10.05
2022-08-25T17:21:55.186Z,8.15
2022-08-25T17:24:29.223Z,9.73
2022-08-25T17:26:59.991Z,9.65
2022-08-25T17:29:29.607Z,9.77
2022-08-25T17:31:59.370Z,9.13
2022-08-25T17:34:28.456Z,8.48
2022-08-25T17:36:57.674Z,10.75
2022-08-25T17:39:26.717Z,10.55
2022-08-25T17:41:54.771Z,8.18
2022-08-25T17:44:22.776Z,7.25
2022-08-25T17:46:50.870Z,9.35
2022-08-25T17:49:21.386Z,8.60
2022-08-25T17:51:51.214Z,8.00
2022-08-25T17:54:20.022Z,8.82
2022-08-25T17:56:48.824Z,8.07
2022-08-25T17:59:18.827Z,10.95
2022-08-25T18:01:47.733Z,10.52
2022-08-25T18:04:17.994Z,7.32
2022-08-25T18:06:49.207Z,11.13
2022-08-25T18:09:18.025Z,7.95
2022-08-25T18:11:46.485Z,7.45
2022-08-25T18:14:16.524Z,9.98
2022-08-25T18:16:44.595Z,8.50
2022-08-25T18:19:14.251Z,9.15
2022-08-25T18:21:43.389Z,10.13
2022-08-25T18:24:13.607Z,9.13
2022-08-25T18:26:42.162Z,7.88
2022-08-25T18:29:12.948Z,7.43
2022-08-25T18:31:42.450Z,10.98
2022-08-25T18:34:11.634Z,8.68
2022-08-25T18:36:41.592Z,19.15
2022-08-25T18:39:28.031Z,12.43
2022-08-25T18:42:01.783Z,9.70
2022-08-25T18:44:30.164Z,10.60
2022-08-25T18:46:58.168Z,10.50
2022-08-25T18:49:26.862Z,9.45
2022-08-25T18:51:57.019Z,12.25
2022-08-25T18:54:25.240Z,11.68
2022-08-25T18:56:54.751Z,9.10
2022-08-25T18:59:24.352Z,8.45
2022-08-25T19:01:53.604Z,10.07
2022-08-25T19:04:28.284Z,11.88
2022-08-25T19:06:59.775Z,11.63
2022-08-25T19:09:27.867Z,9.13
2022-08-25T19:11:57.078Z,9.23
2022-08-25T19:14:26.725Z,9.52
2022-08-25T19:16:54.970Z,9.73
2022-08-25T19:19:24.191Z,9.18
2022-08-25T19:21:52.580Z,11.80
2022-08-25T19:24:21.570Z,10.40
2022-08-25T19:26:53.846Z,12.77
2022-08-25T19:29:23.131Z,9.50
2022-08-25T19:31:53.393Z,8.50
2022-08-25T19:34:28.247Z,9.88
2022-08-25T19:37:00.683Z,11.65
2022-08-25T19:39:30.245Z,10.43
2022-08-25T19:41:59.291Z,9.65
2022-08-25T19:44:28.230Z,11.85
2022-08-25T19:46:58.261Z,9.75
2022-08-25T19:49:31.446Z,12.75
2022-08-25T19:52:00.650Z,12.57
2022-08-25T19:54:31.369Z,9.70
2022-08-25T19:57:00.167Z,9.15
2022-08-25T19:59:40.404Z,11.68
2022-08-25T20:02:15.924Z,11.55
2022-08-25T20:04:49.349Z,11.27
2022-08-25T20:07:18.812Z,9.82
2022-08-25T20:09:47.022Z,10.88
2022-08-25T20:14:48.594Z,11.88
2022-08-25T20:17:24.813Z,10.02
2022-08-25T20:19:58.433Z,10.35
2022-08-25T20:22:27.244Z,10.35
2022-08-25T20:24:57.804Z,10.45
2022-08-25T20:27:29.531Z,13.20
2022-08-25T20:29:57.691Z,9.93
2022-08-25T20:32:27.150Z,12.73
2022-08-25T20:34:57.107Z,12.38
2022-08-25T20:37:25.890Z,9.23
2022-08-25T20:39:55.051Z,11.70
2022-08-25T20:42:23.247Z,9.43
2022-08-25T20:44:51.473Z,13.38
2022-08-25T20:47:20.990Z,10.38
2022-08-25T20:49:50.580Z,12.90
2022-08-25T20:52:19.455Z,11.98
2022-08-25T20:54:50.376Z,10.25
2022-08-25T20:57:19.381Z,12.15
2022-08-25T20:59:54.740Z,12.20
2022-08-25T21:02:23.002Z,11.77
2022-08-25T21:04:53.203Z,11.85
2022-08-25T21:07:23.666Z,11.50
2022-08-25T21:09:52.214Z,12.63
2022-08-25T21:12:20.386Z,10.20
2022-08-25T21:14:49.052Z,12.38
2022-08-25T21:17:19.193Z,13.43
2022-08-25T21:22:22.432Z,10.05
2022-08-25T21:24:51.375Z,13.13
2022-08-25T21:27:19.516Z,11.00
2022-08-25T21:29:54.882Z,11.60
2022-08-25T21:32:24.376Z,13.63
2022-08-25T21:34:54.159Z,13.32
2022-08-25T21:37:23.978Z,12.18
2022-08-25T21:39:53.064Z,10.10
2022-08-25T21:42:22.366Z,12.93
2022-08-25T21:44:51.032Z,11.68
2022-08-25T21:47:21.185Z,13.20
2022-08-25T21:49:50.212Z,11.45
2022-08-25T21:52:18.494Z,13.40
2022-08-25T21:54:47.891Z,12.57
2022-08-25T21:57:17.959Z,9.90
2022-08-25T21:59:47.275Z,12.00
2022-08-25T22:02:19.180Z,11.65
2022-08-25T22:04:52.859Z,10.45
2022-08-25T22:07:22.210Z,11.45
2022-08-25T22:09:54.999Z,12.00
2022-08-25T22:12:23.353Z,14.38
2022-08-25T22:14:53.016Z,11.75
2022-08-25T22:17:24.506Z,10.88
2022-08-25T22:19:54.042Z,15.55
2022-08-25T22:22:22.767Z,13.07
2022-08-25T22:24:53.518Z,13.50
2022-08-25T22:27:23.344Z,14.45
2022-08-25T22:29:52.812Z,13.18
2022-08-25T22:32:21.256Z,10.65
2022-08-25T22:34:49.617Z,13.65
2022-08-25T22:37:18.150Z,14.05
2022-08-25T22:39:47.535Z,12.73
2022-08-25T22:42:18.466Z,18.88
2022-08-25T22:44:46.486Z,14.10
2022-08-25T22:47:14.551Z,14.55
2022-08-25T22:49:42.728Z,15.98
2022-08-25T22:52:12.886Z,10.65
2022-08-25T22:54:42.410Z,14.63
2022-08-25T22:57:11.626Z,15.25
2022-08-25T22:59:42.152Z,11.23
2022-08-25T23:02:10.176Z,16.80
2022-08-25T23:04:41.055Z,16.02
2022-08-25T23:07:11.590Z,16.83
2022-08-25T23:09:39.670Z,16.40
2022-08-25T23:12:08.243Z,14.63
2022-08-25T23:14:37.212Z,12.73
2022-08-25T23:17:08.610Z,12.95
2022-08-25T23:19:36.854Z,13.57
2022-08-25T23:22:10.652Z,15.05
2022-08-25T23:24:42.500Z,17.77
2022-08-25T23:27:13.414Z,16.42
2022-08-25T23:29:43.977Z,16.05
2022-08-25T23:32:14.731Z,18.70
2022-08-25T23:34:46.630Z,14.60
2022-08-25T23:37:16.084Z,14.10
2022-08-25T23:39:49.530Z,19.60
2022-08-25T23:42:19.225Z,14.38
2022-08-25T23:44:47.527Z,14.18
2022-08-25T23:47:17.471Z,11.30
2022-08-25T23:49:46.059Z,13.70
2022-08-25T23:52:17.260Z,15.10
2022-08-25T23:54:46.590Z,18.17
2022-08-25T23:57:14.907Z,17.65
2022-08-25T23:59:43.343Z,18.33
